createdAt,value
2022-12-08T00:01:20.696Z,19.89
2022-12-08T00:03:48.148Z,19.89
2022-12-08T00:06:49.462Z,19.88
2022-12-08T00:09:39.509Z,19.88
2022-12-08T00:12:11.785Z,19.87
2022-12-08T00:14:39.762Z,19.89
2022-12-08T00:17:08.364Z,19.80
2022-12-08T00:19:34.992Z,19.85
2022-12-08T00:22:03.133Z,19.81
2022-12-08T00:24:31.875Z,19.87
2022-12-08T00:26:58.445Z,19.84
2022-12-08T00:29:25.020Z,19.84
2022-12-08T00:31:51.783Z,19.86
2022-12-08T00:34:18.758Z,19.86
2022-12-08T00:36:45.651Z,19.86
2022-12-08T00:39:13.958Z,19.82
2022-12-08T00:41:58.918Z,19.88
2022-12-08T00:44:25.583Z,19.84
2022-12-08T00:46:52.142Z,19.87
2022-12-08T00:49:18.839Z,19.85
2022-12-08T00:51:45.443Z,19.84
2022-12-08T00:54:12.211Z,19.80
2022-12-08T00:56:38.910Z,19.90
2022-12-08T00:59:06.883Z,19.88
2022-12-08T01:01:34.764Z,19.86
2022-12-08T01:04:06.326Z,19.93
2022-12-08T01:06:35.383Z,19.87
2022-12-08T01:09:03.779Z,19.90
2022-12-08T01:11:30.366Z,19.86
2022-12-08T01:13:57.031Z,19.86
2022-12-08T01:16:28.807Z,19.87
2022-12-08T01:18:57.132Z,19.89
2022-12-08T01:21:23.716Z,19.79
2022-12-08T01:23:50.500Z,19.86
2022-12-08T01:26:18.803Z,19.86
2022-12-08T01:28:46.576Z,19.87
2022-12-08T01:31:16.635Z,19.88
2022-12-08T01:33:44.270Z,19.89
2022-12-08T01:36:31.098Z,19.90
2022-12-08T01:38:59.894Z,19.91
2022-12-08T01:41:29.289Z,19.92
2022-12-08T01:44:00.305Z,19.90
2022-12-08T01:46:29.405Z,19.91
2022-12-08T01:49:10.969Z,19.90
2022-12-08T01:51:55.747Z,19.86
2022-12-08T01:54:25.699Z,19.82
2022-12-08T01:57:02.988Z,19.83
2022-12-08T01:59:33.156Z,19.89
2022-12-08T02:01:59.804Z,19.85
2022-12-08T02:04:26.464Z,19.84
2022-12-08T02:06:53.776Z,19.81
2022-12-08T02:09:22.576Z,19.86
2022-12-08T02:11:51.155Z,19.86
2022-12-08T02:14:17.787Z,19.85
2022-12-08T02:17:05.082Z,19.84
2022-12-08T02:19:54.089Z,19.86
2022-12-08T02:22:36.089Z,19.88
2022-12-08T02:25:24.389Z,19.86
2022-12-08T02:28:22.831Z,19.79
2022-12-08T02:31:21.896Z,19.78
2022-12-08T02:34:06.459Z,19.82
2022-12-08T02:37:01.683Z,19.82
2022-12-08T02:39:46.048Z,19.80
2022-12-08T02:42:26.068Z,19.85
2022-12-08T02:45:03.751Z,19.85
2022-12-08T02:47:31.859Z,19.83
2022-12-08T02:49:59.257Z,19.87
2022-12-08T02:52:25.922Z,19.86
2022-12-08T02:55:06.729Z,19.82
2022-12-08T02:57:55.005Z,19.86
2022-12-08T03:00:25.033Z,19.79
2022-12-08T03:03:09.824Z,19.88
2022-12-08T03:05:42.346Z,19.87
2022-12-08T03:08:30.493Z,19.86
2022-12-08T03:11:21.176Z,19.84
2022-12-08T03:13:54.938Z,19.85
2022-12-08T03:16:26.382Z,19.89
2022-12-08T03:18:59.098Z,19.80
2022-12-08T03:21:26.287Z,19.85
2022-12-08T03:23:56.896Z,19.87
2022-12-08T03:26:34.418Z,19.90
2022-12-08T03:29:01.028Z,19.88
2022-12-08T03:31:31.634Z,19.83
2022-12-08T03:34:00.770Z,19.86
2022-12-08T03:36:28.270Z,19.92
2022-12-08T03:38:54.908Z,19.84
2022-12-08T03:41:24.508Z,19.87
2022-12-08T03:43:57.061Z,19.89
2022-12-08T03:48:52.573Z,19.89
2022-12-08T03:51:19.619Z,19.85
2022-12-08T03:53:46.363Z,19.83
2022-12-08T03:56:19.904Z,19.84
2022-12-08T03:58:46.471Z,19.85
2022-12-08T04:01:13.793Z,19.82
2022-12-08T04:03:40.376Z,19.79
2022-12-08T04:06:07.566Z,19.83
2022-12-08T04:08:34.454Z,19.83
2022-12-08T04:11:01.051Z,19.81
2022-12-08T04:13:27.648Z,19.81
2022-12-08T04:15:54.295Z,19.83
2022-12-08T04:18:20.891Z,19.83
2022-12-08T04:20:47.435Z,19.80
2022-12-08T04:23:14.113Z,19.77
2022-12-08T04:25:40.788Z,19.79
2022-12-08T04:28:07.402Z,19.82
2022-12-08T04:30:34.497Z,19.80
2022-12-08T04:33:01.102Z,19.85
2022-12-08T04:35:28.386Z,19.80
2022-12-08T04:37:55.089Z,19.79
2022-12-08T04:40:21.708Z,19.85
2022-12-08T04:42:48.467Z,19.87
2022-12-08T04:45:15.305Z,19.84
2022-12-08T04:47:42.132Z,19.84
2022-12-08T04:50:09.070Z,19.83
2022-12-08T04:52:35.743Z,19.84
2022-12-08T04:55:02.631Z,19.85
2022-12-08T04:57:29.263Z,19.83
2022-12-08T04:59:55.872Z,19.78
2022-12-08T05:02:22.491Z,19.76
2022-12-08T05:04:49.290Z,19.81
2022-12-08T05:07:16.052Z,19.81
2022-12-08T05:09:42.672Z,19.80
2022-12-08T05:12:09.236Z,19.81
2022-12-08T05:14:35.800Z,19.84
2022-12-08T05:17:07.816Z,19.80
2022-12-08T05:19:36.111Z,19.83
2022-12-08T05:22:02.634Z,19.87
2022-12-08T05:24:29.189Z,19.85
2022-12-08T05:26:55.799Z,19.83
2022-12-08T05:29:22.365Z,19.85
2022-12-08T05:31:49.012Z,19.86
2022-12-08T05:34:15.724Z,19.85
2022-12-08T05:36:42.312Z,19.88
2022-12-08T05:39:14.300Z,19.85
2022-12-08T05:41:41.311Z,19.83
2022-12-08T05:44:08.584Z,19.86
2022-12-08T05:46:35.924Z,19.88
2022-12-08T05:49:03.986Z,19.85
2022-12-08T05:51:30.595Z,19.89
2022-12-08T05:53:57.334Z,19.87
2022-12-08T05:56:24.455Z,19.87
2022-12-08T05:58:51.376Z,19.88
2022-12-08T06:01:22.304Z,19.92
2022-12-08T06:03:49.092Z,19.91
2022-12-08T06:06:15.798Z,19.88
2022-12-08T06:08:42.378Z,19.86
2022-12-08T06:11:09.345Z,19.90
2022-12-08T06:13:35.953Z,19.90
2022-12-08T06:16:06.661Z,19.95
2022-12-08T06:18:33.777Z,19.91
2022-12-08T06:21:19.752Z,19.96
2022-12-08T06:23:50.883Z,19.98
2022-12-08T06:26:18.467Z,19.94
2022-12-08T06:28:45.285Z,19.94
2022-12-08T06:31:34.756Z,19.94
2022-12-08T06:34:01.317Z,19.96
2022-12-08T06:36:29.095Z,20.02
2022-12-08T06:38:56.569Z,19.91
2022-12-08T06:41:23.476Z,19.94
2022-12-08T06:43:50.081Z,19.96
2022-12-08T06:46:19.571Z,19.88
2022-12-08T06:48:46.921Z,19.91
2022-12-08T06:51:20.044Z,19.90
2022-12-08T06:53:47.228Z,19.86
2022-12-08T06:56:16.032Z,19.88
2022-12-08T06:58:46.094Z,19.81
2022-12-08T07:01:17.132Z,19.79
2022-12-08T07:03:43.808Z,19.84
2022-12-08T07:06:16.152Z,19.86
2022-12-08T07:08:43.246Z,19.89
2022-12-08T07:11:14.104Z,19.86
2022-12-08T07:13:43.362Z,20.02
2022-12-08T07:16:11.703Z,20.06
2022-12-08T07:18:39.339Z,20.08
2022-12-08T07:21:10.656Z,20.05
2022-12-08T07:23:37.618Z,20.05
2022-12-08T07:26:06.615Z,20.12
2022-12-08T07:28:35.489Z,20.13
2022-12-08T07:31:02.588Z,20.10
2022-12-08T07:33:29.691Z,20.07
2022-12-08T07:35:57.311Z,20.07
2022-12-08T07:38:24.632Z,20.06
2022-12-08T07:40:51.767Z,20.07
2022-12-08T07:43:18.427Z,20.08
2022-12-08T07:45:45.541Z,20.07
2022-12-08T07:48:12.237Z,20.10
2022-12-08T07:50:39.127Z,20.13
2022-12-08T07:53:06.579Z,20.07
2022-12-08T07:55:33.465Z,20.13
2022-12-08T07:58:00.228Z,20.16
2022-12-08T08:00:26.853Z,20.15
2022-12-08T08:02:53.567Z,20.20
2022-12-08T08:05:20.683Z,20.22
2022-12-08T08:07:48.345Z,20.18
2022-12-08T08:10:15.350Z,20.17
2022-12-08T08:12:41.936Z,20.14
2022-12-08T08:15:13.936Z,20.16
2022-12-08T08:17:40.624Z,20.15
2022-12-08T08:20:08.337Z,20.15
2022-12-08T08:22:37.017Z,20.20
2022-12-08T08:25:04.397Z,20.17
2022-12-08T08:27:30.991Z,20.14
2022-12-08T08:29:57.547Z,20.11
2022-12-08T08:32:24.119Z,20.11
2022-12-08T08:34:52.144Z,20.15
2022-12-08T08:37:18.879Z,20.10
2022-12-08T08:39:45.460Z,20.09
2022-12-08T08:42:12.042Z,20.12
2022-12-08T08:44:39.036Z,20.08
2022-12-08T08:47:05.768Z,20.07
2022-12-08T08:49:32.571Z,20.06
2022-12-08T08:51:59.192Z,20.10
2022-12-08T08:54:25.867Z,20.15
2022-12-08T08:56:52.749Z,20.13
2022-12-08T08:59:19.327Z,20.18
2022-12-08T09:01:45.958Z,20.25
2022-12-08T09:04:12.647Z,20.27
2022-12-08T09:06:39.361Z,20.25
2022-12-08T09:09:06.488Z,20.27
2022-12-08T09:11:33.344Z,20.43
2022-12-08T09:13:59.938Z,20.94
2022-12-08T09:16:26.699Z,20.93
2022-12-08T09:18:53.443Z,20.90
2022-12-08T09:21:23.360Z,20.89
2022-12-08T09:23:58.590Z,20.87
2022-12-08T09:26:27.200Z,20.82
2022-12-08T09:28:55.158Z,20.71
2022-12-08T09:31:22.907Z,20.64
2022-12-08T09:33:53.177Z,20.55
2022-12-08T09:36:20.699Z,20.54
2022-12-08T09:38:47.988Z,20.53
2022-12-08T09:41:38.771Z,20.48
2022-12-08T09:44:33.568Z,20.54
2022-12-08T09:47:01.602Z,20.51
2022-12-08T09:49:41.897Z,20.53
2022-12-08T09:52:23.186Z,20.50
2022-12-08T09:54:50.084Z,20.48
2022-12-08T09:57:20.817Z,20.47
2022-12-08T09:59:53.611Z,20.50
2022-12-08T10:02:23.802Z,20.57
2022-12-08T10:04:59.100Z,20.59
2022-12-08T10:07:37.778Z,20.54
2022-12-08T10:10:14.662Z,20.54
2022-12-08T10:13:08.426Z,20.46
2022-12-08T10:15:52.859Z,20.41
2022-12-08T10:18:30.285Z,20.40
2022-12-08T10:21:11.620Z,20.38
2022-12-08T10:23:41.097Z,20.40
2022-12-08T10:26:16.772Z,20.42
2022-12-08T10:28:45.360Z,20.44
2022-12-08T10:31:21.486Z,20.45
2022-12-08T10:33:57.243Z,20.46
2022-12-08T10:36:27.544Z,20.45
2022-12-08T10:38:54.126Z,20.47
2022-12-08T10:41:20.844Z,20.47
2022-12-08T10:43:50.922Z,20.49
2022-12-08T10:46:21.035Z,20.48
2022-12-08T10:49:05.980Z,20.59
2022-12-08T10:51:37.934Z,20.64
2022-12-08T10:54:06.225Z,20.65
2022-12-08T10:56:33.333Z,20.59
2022-12-08T10:59:26.484Z,20.63
2022-12-08T11:01:55.263Z,20.63
2022-12-08T11:04:24.329Z,20.72
2022-12-08T11:06:51.885Z,20.77
2022-12-08T11:09:18.745Z,20.75
2022-12-08T11:11:49.335Z,20.61
2022-12-08T11:14:22.147Z,20.61
2022-12-08T11:16:53.160Z,20.53
2022-12-08T11:19:21.548Z,20.38
2022-12-08T11:21:48.350Z,20.39
2022-12-08T11:24:15.045Z,20.39
2022-12-08T11:26:49.487Z,20.34
2022-12-08T11:29:17.439Z,20.30
2022-12-08T11:31:49.978Z,20.22
2022-12-08T11:34:31.481Z,20.20
2022-12-08T11:36:59.209Z,20.15
2022-12-08T11:39:29.804Z,20.11
2022-12-08T11:41:58.480Z,20.13
2022-12-08T11:44:31.111Z,20.20
2022-12-08T11:47:22.557Z,20.16
2022-12-08T11:49:56.767Z,20.15
2022-12-08T11:52:26.446Z,20.19
2022-12-08T11:55:35.219Z,20.21
2022-12-08T11:58:16.738Z,20.19
2022-12-08T12:00:43.628Z,20.21
2022-12-08T12:03:29.754Z,20.26
2022-12-08T12:06:53.322Z,20.21
2022-12-08T12:09:40.967Z,20.19
2022-12-08T12:12:16.763Z,20.22
2022-12-08T12:15:40.837Z,20.20
2022-12-08T12:18:34.457Z,20.15
2022-12-08T12:21:18.387Z,20.15
2022-12-08T12:23:56.296Z,20.15
2022-12-08T12:26:26.314Z,20.11
2022-12-08T12:28:57.883Z,20.13
2022-12-08T12:31:47.461Z,20.13
2022-12-08T12:34:30.051Z,20.11
2022-12-08T12:37:05.391Z,20.10
2022-12-08T12:39:45.762Z,20.14
2022-12-08T12:42:38.047Z,20.12
2022-12-08T12:45:27.134Z,20.04
2022-12-08T12:47:57.270Z,20.11
2022-12-08T12:50:33.233Z,20.08
2022-12-08T12:53:26.079Z,20.08
2022-12-08T12:55:59.858Z,20.12
2022-12-08T12:58:32.134Z,20.11
2022-12-08T13:01:13.801Z,20.09
2022-12-08T13:03:41.571Z,20.04
2022-12-08T13:06:14.557Z,20.02
2022-12-08T13:08:51.333Z,20.03
2022-12-08T13:11:18.199Z,20.03
2022-12-08T13:14:06.054Z,20.03
2022-12-08T13:16:37.542Z,20.02
2022-12-08T13:19:11.595Z,19.98
2022-12-08T13:21:39.833Z,20.01
2022-12-08T13:24:14.256Z,20.03
2022-12-08T13:26:48.908Z,20.04
2022-12-08T13:29:25.595Z,20.05
2022-12-08T13:32:03.382Z,20.05
2022-12-08T13:34:42.281Z,20.04
2022-12-08T13:37:11.594Z,20.01
2022-12-08T13:39:40.906Z,20.02
2022-12-08T13:42:33.605Z,20.00
2022-12-08T13:45:39.639Z,19.96
2022-12-08T13:49:03.386Z,19.99
2022-12-08T13:53:22.440Z,19.94
2022-12-08T13:57:08.509Z,19.93
2022-12-08T13:59:44.655Z,19.95
2022-12-08T14:02:47.039Z,19.94
2022-12-08T14:05:18.557Z,19.92
2022-12-08T14:07:48.352Z,19.94
2022-12-08T14:10:22.147Z,19.93
2022-12-08T14:12:55.461Z,19.94
2022-12-08T14:15:24.977Z,19.91
2022-12-08T14:17:53.511Z,19.91
2022-12-08T14:20:28.527Z,19.92
2022-12-08T14:22:55.397Z,19.89
2022-12-08T14:25:23.307Z,19.90
2022-12-08T14:27:56.371Z,19.89
2022-12-08T14:30:31.132Z,19.90
2022-12-08T14:32:59.425Z,19.92
2022-12-08T14:35:30.421Z,19.94
2022-12-08T14:38:12.964Z,19.90
2022-12-08T14:40:44.925Z,19.92
2022-12-08T14:43:16.492Z,19.94
2022-12-08T14:45:43.016Z,19.92
2022-12-08T14:48:27.761Z,19.92
2022-12-08T14:51:01.697Z,19.93
2022-12-08T14:53:39.886Z,19.87
2022-12-08T14:56:46.991Z,19.90
2022-12-08T14:59:13.544Z,19.91
2022-12-08T15:01:41.234Z,19.92
2022-12-08T15:04:14.842Z,19.94
2022-12-08T15:07:18.748Z,19.89
2022-12-08T15:09:49.955Z,19.92
2022-12-08T15:12:26.761Z,19.91
2022-12-08T15:15:14.378Z,19.87
2022-12-08T15:17:44.678Z,19.93
2022-12-08T15:20:35.937Z,19.91
2022-12-08T15:23:03.165Z,19.89
2022-12-08T15:25:30.054Z,19.86
2022-12-08T15:27:57.978Z,19.85
2022-12-08T15:30:28.655Z,19.88
2022-12-08T15:32:56.256Z,19.92
2022-12-08T15:35:23.969Z,19.96
2022-12-08T15:37:50.813Z,19.98
2022-12-08T15:40:20.235Z,20.03
2022-12-08T15:42:47.201Z,19.99
2022-12-08T15:45:14.998Z,19.99
2022-12-08T15:47:43.660Z,19.99
2022-12-08T15:50:18.355Z,20.02
2022-12-08T15:52:45.291Z,20.00
2022-12-08T15:55:13.857Z,20.01
2022-12-08T15:58:44.652Z,20.03
2022-12-08T16:00:53.014Z,20.06
2022-12-08T16:04:13.910Z,20.03
2022-12-08T16:09:42.085Z,20.06
2022-12-08T16:18:24.016Z,19.99
2022-12-08T16:21:13.294Z,19.97
2022-12-08T16:23:45.438Z,20.01
2022-12-08T16:29:17.598Z,19.94
2022-12-08T16:31:44.323Z,19.94
2022-12-08T16:34:10.903Z,19.93
2022-12-08T16:36:37.513Z,19.96
2022-12-08T16:39:04.109Z,19.95
2022-12-08T16:41:49.462Z,19.90
2022-12-08T16:44:16.047Z,19.90
2022-12-08T16:46:42.867Z,19.92
2022-12-08T16:49:09.893Z,19.90
2022-12-08T16:51:36.452Z,19.89
2022-12-08T16:54:03.197Z,19.88
2022-12-08T16:56:33.267Z,19.88
2022-12-08T16:59:01.820Z,19.85
2022-12-08T17:01:28.579Z,19.88
2022-12-08T17:04:29.346Z,19.91
2022-12-08T17:06:42.031Z,19.87
2022-12-08T17:09:08.635Z,19.90
2022-12-08T17:11:42.393Z,19.88
2022-12-08T17:14:10.745Z,19.93
2022-12-08T17:16:37.402Z,19.92
2022-12-08T17:19:04.256Z,19.91
2022-12-08T17:21:31.076Z,19.92
2022-12-08T17:23:57.693Z,19.92
2022-12-08T17:26:24.279Z,19.93
2022-12-08T17:29:06.301Z,19.96
2022-12-08T17:31:33.611Z,19.89
2022-12-08T17:34:01.744Z,19.94
2022-12-08T17:36:28.704Z,19.97
2022-12-08T17:38:56.459Z,19.93
2022-12-08T17:41:23.173Z,19.99
2022-12-08T17:43:49.953Z,19.93
2022-12-08T17:46:18.771Z,20.02
2022-12-08T17:48:45.573Z,20.00
2022-12-08T17:51:12.280Z,19.97
2022-12-08T17:53:40.713Z,20.00
2022-12-08T17:56:17.574Z,20.02
2022-12-08T17:58:45.643Z,19.96
2022-12-08T18:01:14.157Z,19.99
2022-12-08T18:03:40.782Z,19.98
2022-12-08T18:06:12.631Z,20.02
2022-12-08T18:08:40.194Z,19.99
2022-12-08T18:11:16.799Z,20.00
2022-12-08T18:13:43.707Z,20.01
2022-12-08T18:16:11.157Z,19.98
2022-12-08T18:18:37.788Z,20.01
2022-12-08T18:21:04.770Z,19.97
2022-12-08T18:23:31.381Z,20.01
2022-12-08T18:25:57.982Z,19.98
2022-12-08T18:28:24.615Z,19.97
2022-12-08T18:30:51.552Z,19.98
2022-12-08T18:33:18.179Z,19.96
2022-12-08T18:35:44.733Z,19.99
2022-12-08T18:38:11.303Z,19.96
2022-12-08T18:40:37.933Z,19.96
2022-12-08T18:43:04.546Z,19.94
2022-12-08T18:45:31.154Z,19.92
2022-12-08T18:47:57.729Z,19.90
2022-12-08T18:50:24.322Z,19.93
2022-12-08T18:52:51.545Z,19.90
2022-12-08T18:55:18.186Z,19.97
2022-12-08T18:57:44.829Z,19.97
2022-12-08T19:00:15.056Z,19.92
2022-12-08T19:02:41.800Z,19.94
2022-12-08T19:05:10.684Z,19.99
2022-12-08T19:07:37.679Z,19.96
2022-12-08T19:10:06.074Z,20.00
2022-12-08T19:12:32.986Z,20.02
2022-12-08T19:14:59.609Z,20.02
2022-12-08T19:17:26.208Z,19.97
2022-12-08T19:19:52.776Z,19.99
2022-12-08T19:22:19.354Z,20.01
2022-12-08T19:24:46.246Z,20.02
2022-12-08T19:27:12.836Z,20.04
2022-12-08T19:29:39.441Z,20.02
2022-12-08T19:32:06.152Z,19.99
2022-12-08T19:34:32.786Z,19.95
2022-12-08T19:36:59.359Z,20.01
2022-12-08T19:39:44.458Z,19.97
2022-12-08T19:42:38.535Z,19.93
2022-12-08T19:45:07.133Z,19.99
2022-12-08T19:47:34.042Z,19.99
2022-12-08T19:50:20.753Z,19.99
2022-12-08T19:52:47.385Z,19.98
2022-12-08T19:55:14.091Z,20.02
2022-12-08T19:57:40.702Z,20.01
2022-12-08T20:00:09.522Z,20.03
2022-12-08T20:02:37.095Z,20.04
2022-12-08T20:05:05.303Z,20.05
2022-12-08T20:07:31.910Z,20.02
2022-12-08T20:09:58.548Z,20.03
2022-12-08T20:12:25.143Z,20.01
2022-12-08T20:14:53.034Z,19.60
2022-12-08T20:17:19.608Z,19.86
2022-12-08T20:19:46.590Z,19.93
2022-12-08T20:22:13.667Z,19.97
2022-12-08T20:24:40.266Z,19.95
2022-12-08T20:27:06.922Z,19.99
2022-12-08T20:29:33.651Z,19.98
2022-12-08T20:32:00.345Z,19.98
2022-12-08T20:34:27.084Z,19.97
2022-12-08T20:36:53.710Z,19.98
2022-12-08T20:39:20.379Z,19.94
2022-12-08T20:41:47.029Z,19.95
2022-12-08T20:44:13.750Z,19.98
2022-12-08T20:46:43.771Z,19.99
2022-12-08T20:49:13.141Z,20.04
2022-12-08T20:51:39.794Z,19.99
2022-12-08T20:54:06.451Z,20.01
2022-12-08T20:56:33.160Z,20.01
2022-12-08T20:59:00.082Z,20.00
2022-12-08T21:01:26.860Z,20.02
2022-12-08T21:03:54.260Z,20.02
2022-12-08T21:06:24.530Z,20.03
2022-12-08T21:08:51.824Z,20.01
2022-12-08T21:11:18.987Z,20.02
2022-12-08T21:13:46.880Z,20.01
2022-12-08T21:16:15.147Z,20.08
2022-12-08T21:18:42.515Z,20.05
2022-12-08T21:21:12.275Z,20.09
2022-12-08T21:23:39.326Z,20.07
2022-12-08T21:26:14.978Z,20.08
2022-12-08T21:28:42.274Z,20.04
2022-12-08T21:31:10.370Z,20.07
2022-12-08T21:33:37.866Z,19.98
2022-12-08T21:36:09.384Z,20.04
2022-12-08T21:38:37.832Z,20.03
2022-12-08T21:41:10.398Z,20.08
2022-12-08T21:43:37.780Z,20.02
2022-12-08T21:46:05.284Z,20.04
2022-12-08T21:48:32.301Z,20.04
2022-12-08T21:51:05.024Z,20.04
2022-12-08T21:53:32.036Z,19.99
2022-12-08T21:55:58.824Z,20.03
2022-12-08T21:58:26.444Z,19.99
2022-12-08T22:00:53.350Z,20.01
2022-12-08T22:03:20.213Z,19.95
2022-12-08T22:05:47.032Z,19.98
2022-12-08T22:08:13.816Z,19.93
2022-12-08T22:10:40.663Z,19.93
2022-12-08T22:13:07.362Z,19.91
2022-12-08T22:15:34.221Z,19.95
2022-12-08T22:18:01.077Z,19.90
2022-12-08T22:20:27.818Z,19.90
2022-12-08T22:22:54.553Z,19.90
2022-12-08T22:25:21.195Z,19.93
2022-12-08T22:27:47.853Z,19.90
2022-12-08T22:30:14.593Z,19.95
2022-12-08T22:32:42.016Z,19.95
2022-12-08T22:35:09.654Z,19.93
2022-12-08T22:37:36.306Z,19.90
2022-12-08T22:40:03.173Z,19.93
2022-12-08T22:42:30.224Z,19.94
2022-12-08T22:44:56.779Z,19.92
2022-12-08T22:47:23.516Z,19.85
2022-12-08T22:49:50.079Z,19.89
2022-12-08T22:52:16.686Z,19.86
2022-12-08T22:54:43.366Z,19.86
2022-12-08T22:57:10.288Z,19.88
2022-12-08T22:59:37.574Z,19.87
2022-12-08T23:02:04.319Z,19.87
2022-12-08T23:04:31.160Z,19.87
2022-12-08T23:06:57.870Z,19.87
2022-12-08T23:09:24.467Z,19.88
2022-12-08T23:11:51.538Z,19.88
2022-12-08T23:14:18.082Z,19.90
2022-12-08T23:16:44.992Z,19.97
2022-12-08T23:19:11.888Z,19.92
2022-12-08T23:21:39.035Z,19.96
2022-12-08T23:24:05.854Z,19.93
2022-12-08T23:26:34.857Z,19.98
2022-12-08T23:29:01.712Z,19.94
2022-12-08T23:31:28.476Z,19.97
2022-12-08T23:33:55.159Z,19.95
2022-12-08T23:36:26.264Z,19.94
2022-12-08T23:38:54.453Z,19.91
2022-12-08T23:41:21.085Z,19.94
2022-12-08T23:43:51.381Z,19.93
2022-12-08T23:46:21.073Z,19.96
2022-12-08T23:48:48.045Z,19.92
2022-12-08T23:51:15.037Z,19.91
2022-12-08T23:53:42.205Z,19.92
2022-12-08T23:56:12.204Z,19.96
2022-12-08T23:58:40.168Z,19.95
